Time,TemperatureF,DewpointF,PressureIn,WindDirection,WindDirectionDegrees,WindSpeedMPH,WindSpeedGustMPH,Humidity,HourlyPrecipIn,Conditions,Clouds,dailyrainin,SoftwareType,DateUTC
2014-09-18 00:00:00,78.0,48.0,-100.00,WSW,255,3.0,-999.0,34,0.00,,,-99.99,,2014-09-18 07:00:00,
2014-09-18 00:22:00,78.0,48.0,-100.00,WSW,255,3.0,-999.0,34,0.00,,,-99.99,,2014-09-18 07:22:00,
2014-09-18 00:32:00,78.0,48.0,-100.00,WSW,255,3.0,-999.0,34,0.00,,,-99.99,,2014-09-18 07:32:00,
2014-09-18 00:42:00,78.0,48.0,-100.00,WSW,255,3.0,-999.0,34,0.00,,,-99.99,,2014-09-18 07:42:00,
2014-09-18 00:53:00,78.0,48.0,-100.00,WSW,255,3.0,-999.0,34,0.00,,,-99.99,,2014-09-18 07:53:00,
2014-09-18 01:00:00,74.0,49.0,-100.00,SW,216,2.0,-999.0,42,0.00,,,-99.99,,2014-09-18 08:00:00,
2014-09-18 01:23:00,74.0,49.0,-100.00,SW,216,2.0,-999.0,42,0.00,,,-99.99,,2014-09-18 08:23:00,
2014-09-18 01:33:00,74.0,49.0,-100.00,SW,216,2.0,-999.0,42,0.00,,,-99.99,,2014-09-18 08:33:00,
2014-09-18 01:42:00,74.0,49.0,-100.00,SW,216,2.0,-999.0,42,0.00,,,-99.99,,2014-09-18 08:42:00,
2014-09-18 01:52:00,74.0,49.0,-100.00,SW,216,2.0,-999.0,42,0.00,,,-99.99,,2014-09-18 08:52:00,
2014-09-18 02:00:00,68.0,50.0,-100.00,SE,134,4.0,-999.0,52,0.00,,,-99.99,,2014-09-18 09:00:00,
2014-09-18 02:23:00,68.0,50.0,-100.00,SE,134,4.0,-999.0,52,0.00,,,-99.99,,2014-09-18 09:23:00,
2014-09-18 02:34:00,68.0,50.0,-100.00,SE,134,4.0,-999.0,52,0.00,,,-99.99,,2014-09-18 09:34:00,
2014-09-18 02:44:00,68.0,50.0,-100.00,SE,134,4.0,-999.0,52,0.00,,,-99.99,,2014-09-18 09:44:00,
2014-09-18 02:54:00,68.0,50.0,-100.00,SE,134,4.0,-999.0,52,0.00,,,-99.99,,2014-09-18 09:54:00,
2014-09-18 03:00:00,67.0,46.0,-100.00,SSW,210,4.0,-999.0,45,0.00,,,-99.99,,2014-09-18 10:00:00,
2014-09-18 03:24:00,67.0,46.0,-100.00,SSW,210,4.0,-999.0,45,0.00,,,-99.99,,2014-09-18 10:24:00,
2014-09-18 03:33:00,67.0,46.0,-100.00,SSW,210,4.0,-999.0,45,0.00,,,-99.99,,2014-09-18 10:33:00,
2014-09-18 03:43:00,67.0,46.0,-100.00,SSW,210,4.0,-999.0,45,0.00,,,-99.99,,2014-09-18 10:43:00,
2014-09-18 03:53:00,67.0,46.0,-100.00,SSW,210,4.0,-999.0,45,0.00,,,-99.99,,2014-09-18 10:53:00,
2014-09-18 04:00:00,66.0,47.0,-100.00,East,94,3.0,-999.0,50,0.00,,,-99.99,,2014-09-18 11:00:00,
2014-09-18 04:23:00,66.0,47.0,-100.00,East,94,3.0,-999.0,50,0.00,,,-99.99,,2014-09-18 11:23:00,
2014-09-18 04:33:00,66.0,47.0,-100.00,East,94,3.0,-999.0,50,0.00,,,-99.99,,2014-09-18 11:33:00,
2014-09-18 04:43:00,66.0,47.0,-100.00,East,94,3.0,-999.0,50,0.00,,,-99.99,,2014-09-18 11:43:00,
2014-09-18 04:52:00,66.0,47.0,-100.00,East,94,3.0,-999.0,50,0.00,,,-99.99,,2014-09-18 11:52:00,
2014-09-18 09:00:00,69.0,51.0,-100.00,SE,129,1.0,-999.0,52,0.00,,,-99.99,,2014-09-18 16:00:00,
2014-09-18 09:24:00,69.0,51.0,-100.00,SE,129,1.0,-999.0,52,0.00,,,-99.99,,2014-09-18 16:24:00,
2014-09-18 09:34:00,69.0,51.0,-100.00,SE,129,1.0,-999.0,52,0.00,,,-99.99,,2014-09-18 16:34:00,
2014-09-18 09:43:00,69.0,51.0,-100.00,SE,129,1.0,-999.0,52,0.00,,,-99.99,,2014-09-18 16:43:00,
2014-09-18 09:53:00,69.0,51.0,-100.00,SE,129,1.0,-999.0,52,0.00,,,-99.99,,2014-09-18 16:53:00,
2014-09-18 10:00:00,74.0,51.0,-100.00,SE,141,1.0,-999.0,45,0.00,,,-99.99,,2014-09-18 17:00:00,
2014-09-18 10:44:00,74.0,51.0,-100.00,SE,141,1.0,-999.0,45,0.00,,,-99.99,,2014-09-18 17:44:00,
2014-09-18 10:53:00,74.0,51.0,-100.00,SE,141,1.0,-999.0,45,0.00,,,-99.99,,2014-09-18 17:53:00,
2014-09-18 11:00:00,77.0,51.0,-100.00,East,79,0.0,-999.0,40,0.00,,,-99.99,,2014-09-18 18:00:00,
2014-09-18 11:22:00,77.0,51.0,-100.00,East,79,0.0,-999.0,40,0.00,,,-99.99,,2014-09-18 18:22:00,
2014-09-18 11:32:00,77.0,51.0,-100.00,East,79,0.0,-999.0,40,0.00,,,-99.99,,2014-09-18 18:32:00,
2014-09-18 11:42:00,77.0,51.0,-100.00,East,79,0.0,-999.0,40,0.00,,,-99.99,,2014-09-18 18:42:00,
2014-09-18 11:52:00,77.0,51.0,-100.00,East,79,0.0,-999.0,40,0.00,,,-99.99,,2014-09-18 18:52:00,
2014-09-18 12:00:00,79.0,52.0,-100.00,SW,217,2.0,-999.0,39,0.00,,,-99.99,,2014-09-18 19:00:00,
2014-09-18 12:22:00,79.0,52.0,-100.00,SW,217,2.0,-999.0,39,0.00,,,-99.99,,2014-09-18 19:22:00,
2014-09-18 12:32:00,79.0,52.0,-100.00,SW,217,2.0,-999.0,39,0.00,,,-99.99,,2014-09-18 19:32:00,
2014-09-18 12:42:00,79.0,52.0,-100.00,SW,217,2.0,-999.0,39,0.00,,,-99.99,,2014-09-18 19:42:00,
2014-09-18 12:52:00,79.0,52.0,-100.00,SW,217,2.0,-999.0,39,0.00,,,-99.99,,2014-09-18 19:52:00,
2014-09-18 13:00:00,83.0,53.0,-100.00,SW,229,8.0,-999.0,35,0.00,,,-99.99,,2014-09-18 20:00:00,
2014-09-18 13:23:00,83.0,53.0,-100.00,SW,229,8.0,-999.0,35,0.00,,,-99.99,,2014-09-18 20:23:00,
2014-09-18 13:34:00,83.0,53.0,-100.00,SW,229,8.0,-999.0,35,0.00,,,-99.99,,2014-09-18 20:34:00,
2014-09-18 13:42:00,83.0,53.0,-100.00,SW,229,8.0,-999.0,35,0.00,,,-99.99,,2014-09-18 20:42:00,
2014-09-18 13:52:00,83.0,53.0,-100.00,SW,229,8.0,-999.0,35,0.00,,,-99.99,,2014-09-18 20:52:00,
2014-09-18 14:00:00,84.0,54.0,-100.00,West,272,4.0,-999.0,35,0.00,,,-99.99,,2014-09-18 21:00:00,
2014-09-18 14:22:00,84.0,54.0,-100.00,West,272,4.0,-999.0,35,0.00,,,-99.99,,2014-09-18 21:22:00,
2014-09-18 14:34:00,84.0,54.0,-100.00,West,272,4.0,-999.0,35,0.00,,,-99.99,,2014-09-18 21:34:00,
2014-09-18 14:44:00,84.0,54.0,-100.00,West,272,4.0,-999.0,35,0.00,,,-99.99,,2014-09-18 21:44:00,
2014-09-18 14:54:00,84.0,54.0,-100.00,West,272,4.0,-999.0,35,0.00,,,-99.99,,2014-09-18 21:54:00,
2014-09-18 15:00:00,86.0,55.0,-100.00,SW,235,9.0,-999.0,34,0.00,,,-99.99,,2014-09-18 22:00:00,
2014-09-18 15:23:00,86.0,55.0,-100.00,SW,235,9.0,-999.0,34,0.00,,,-99.99,,2014-09-18 22:23:00,
2014-09-18 15:33:00,86.0,55.0,-100.00,SW,235,9.0,-999.0,34,0.00,,,-99.99,,2014-09-18 22:33:00,
2014-09-18 15:43:00,86.0,55.0,-100.00,SW,235,9.0,-999.0,34,0.00,,,-99.99,,2014-09-18 22:43:00,
2014-09-18 15:52:00,86.0,55.0,-100.00,SW,235,9.0,-999.0,34,0.00,,,-99.99,,2014-09-18 22:52:00,
2014-09-18 16:00:00,87.0,55.0,-100.00,West,277,7.0,-999.0,34,0.00,,,-99.99,,2014-09-18 23:00:00,
2014-09-18 16:22:00,87.0,55.0,-100.00,West,277,7.0,-999.0,34,0.00,,,-99.99,,2014-09-18 23:22:00,
2014-09-18 16:32:00,87.0,55.0,-100.00,West,277,7.0,-999.0,34,0.00,,,-99.99,,2014-09-18 23:32:00,
2014-09-18 16:43:00,87.0,55.0,-100.00,West,277,7.0,-999.0,34,0.00,,,-99.99,,2014-09-18 23:43:00,
2014-09-18 16:52:00,87.0,55.0,-100.00,West,277,7.0,-999.0,34,0.00,,,-99.99,,2014-09-18 23:52:00,
2014-09-18 17:00:00,87.0,56.0,-100.00,WNW,287,4.0,-999.0,34,0.00,,,-99.99,,2014-09-19 00:00:00,
2014-09-18 17:22:00,87.0,56.0,-100.00,WNW,287,4.0,-999.0,34,0.00,,,-99.99,,2014-09-19 00:22:00,
2014-09-18 17:32:00,87.0,56.0,-100.00,WNW,287,4.0,-999.0,34,0.00,,,-99.99,,2014-09-19 00:32:00,
2014-09-18 17:42:00,87.0,56.0,-100.00,WNW,287,4.0,-999.0,34,0.00,,,-99.99,,2014-09-19 00:42:00,
2014-09-18 17:52:00,87.0,56.0,-100.00,WNW,287,4.0,-999.0,34,0.00,,,-99.99,,2014-09-19 00:52:00,
2014-09-18 18:00:00,87.0,54.0,-100.00,West,269,6.0,-999.0,32,0.00,,,-99.99,,2014-09-19 01:00:00,
2014-09-18 18:22:00,87.0,54.0,-100.00,West,269,6.0,-999.0,32,0.00,,,-99.99,,2014-09-19 01:22:00,
2014-09-18 18:32:00,87.0,54.0,-100.00,West,269,6.0,-999.0,32,0.00,,,-99.99,,2014-09-19 01:32:00,
2014-09-18 18:43:00,87.0,54.0,-100.00,West,269,6.0,-999.0,32,0.00,,,-99.99,,2014-09-19 01:43:00,
2014-09-18 18:53:00,87.0,54.0,-100.00,West,269,6.0,-999.0,32,0.00,,,-99.99,,2014-09-19 01:53:00,
2014-09-18 19:00:00,86.0,54.0,-100.00,NNW,344,6.0,-999.0,34,0.00,,,-99.99,,2014-09-19 02:00:00,
2014-09-18 19:42:00,86.0,54.0,-100.00,NNW,344,6.0,-999.0,34,0.00,,,-99.99,,2014-09-19 02:42:00,
2014-09-18 19:52:00,86.0,54.0,-100.00,NNW,344,6.0,-999.0,34,0.00,,,-99.99,,2014-09-19 02:52:00,
2014-09-18 20:00:00,83.0,55.0,-100.00,North,10,4.0,-999.0,38,0.00,,,-99.99,,2014-09-19 03:00:00,
2014-09-18 20:22:00,83.0,55.0,-100.00,North,10,4.0,-999.0,38,0.00,,,-99.99,,2014-09-19 03:22:00,
2014-09-18 20:33:00,83.0,55.0,-100.00,North,10,4.0,-999.0,38,0.00,,,-99.99,,2014-09-19 03:33:00,
2014-09-18 20:44:00,83.0,55.0,-100.00,North,10,4.0,-999.0,38,0.00,,,-99.99,,2014-09-19 03:44:00,
2014-09-18 20:54:00,83.0,55.0,-100.00,North,10,4.0,-999.0,38,0.00,,,-99.99,,2014-09-19 03:54:00,
2014-09-18 21:00:00,81.0,55.0,-100.00,NNE,14,4.0,-999.0,41,0.00,,,-99.99,,2014-09-19 04:00:00,
2014-09-18 21:24:00,81.0,55.0,-100.00,NNE,14,4.0,-999.0,41,0.00,,,-99.99,,2014-09-19 04:24:00,
2014-09-18 21:34:00,81.0,55.0,-100.00,NNE,14,4.0,-999.0,41,0.00,,,-99.99,,2014-09-19 04:34:00,
2014-09-18 21:44:00,81.0,55.0,-100.00,NNE,14,4.0,-999.0,41,0.00,,,-99.99,,2014-09-19 04:44:00,
2014-09-18 21:53:00,81.0,55.0,-100.00,NNE,14,4.0,-999.0,41,0.00,,,-99.99,,2014-09-19 04:53:00,
2014-09-18 22:00:00,76.0,57.0,-100.00,SW,231,6.0,-999.0,51,0.00,,,-99.99,,2014-09-19 05:00:00,
2014-09-18 22:23:00,76.0,57.0,-100.00,SW,231,6.0,-999.0,51,0.00,,,-99.99,,2014-09-19 05:23:00,
2014-09-18 22:33:00,76.0,57.0,-100.00,SW,231,6.0,-999.0,51,0.00,,,-99.99,,2014-09-19 05:33:00,
2014-09-18 22:43:00,76.0,57.0,-100.00,SW,231,6.0,-999.0,51,0.00,,,-99.99,,2014-09-19 05:43:00,
2014-09-18 22:53:00,76.0,57.0,-100.00,SW,231,6.0,-999.0,51,0.00,,,-99.99,,2014-09-19 05:53:00,
2014-09-18 23:42:00,73.0,55.0,-100.00,South,183,2.0,-999.0,53,0.00,,,-99.99,,2014-09-19 06:42:00,